Aviation Digital Data Service (ADDS)

Output produced by METARs form (1731 UTC 03 June 2020)
found at http://www.aviationweather.gov/metar/data/
 
METAR text: HSSS 031700Z 36008KT CAVOK 39/01 Q1006 NOSIG
Conditions at: HSSS (KHARTOUM (CIV/MI, SD) observed 1700 UTC 03 June 2020
Temperature: 39.0°C (102°F)
Dewpoint: 1.0°C (34°F) [RH =  9%]
Pressure (altimeter): 29.70 inches Hg (1006.0 mb)
Winds: from the N (360 degrees) at 9 MPH (8 knots; 4.1 m/s)
Visibility: 6 or more miles (10+ km)
Ceiling: ceiling and visibility are OK
Clouds: unknown
Weather: no significant weather observed at this time

METAR text: HSSS 031600Z 36011KT CAVOK 41/01 Q1006 NOSIG
Conditions at: HSSS (KHARTOUM (CIV/MI, SD) observed 1600 UTC 03 June 2020
Temperature: 41.0°C (106°F)
Dewpoint: 1.0°C (34°F) [RH =  8%]
Pressure (altimeter): 29.70 inches Hg (1006.0 mb)
Winds: from the N (360 degrees) at 13 MPH (11 knots; 5.7 m/s)
Visibility: 6 or more miles (10+ km)
Ceiling: ceiling and visibility are OK
Clouds: unknown
Weather: no significant weather observed at this time

METAR text: HSSS 031500Z 34012KT CAVOK 43/00 Q1006 NOSIG
Conditions at: HSSS (KHARTOUM (CIV/MI, SD) observed 1500 UTC 03 June 2020
Temperature: 43.0°C (109°F)
Dewpoint: 0.0°C (32°F) [RH =  7%]
Pressure (altimeter): 29.70 inches Hg (1006.0 mb)
Winds: from the NNW (340 degrees) at 14 MPH (12 knots; 6.2 m/s)
Visibility: 6 or more miles (10+ km)
Ceiling: ceiling and visibility are OK
Clouds: unknown
Weather: no significant weather observed at this time

METAR text: HSSS 031400Z 34011KT CAVOK 43/01 Q1006 NOSIG
Conditions at: HSSS (KHARTOUM (CIV/MI, SD) observed 1400 UTC 03 June 2020
Temperature: 43.0°C (109°F)
Dewpoint: 1.0°C (34°F) [RH =  8%]
Pressure (altimeter): 29.70 inches Hg (1006.0 mb)
Winds: from the NNW (340 degrees) at 13 MPH (11 knots; 5.7 m/s)
Visibility: 6 or more miles (10+ km)
Ceiling: ceiling and visibility are OK
Clouds: unknown
Weather: no significant weather observed at this time

METAR text: HSSS 031300Z 05009KT CAVOK 44/01 Q1006 NOSIG
Conditions at: HSSS (KHARTOUM (CIV/MI, SD) observed 1300 UTC 03 June 2020
Temperature: 44.0°C (111°F)
Dewpoint: 1.0°C (34°F) [RH =  7%]
Pressure (altimeter): 29.70 inches Hg (1006.0 mb)
Winds: from the NE (50 degrees) at 10 MPH (9 knots; 4.6 m/s)
Visibility: 6 or more miles (10+ km)
Ceiling: ceiling and visibility are OK
Clouds: unknown
Weather: no significant weather observed at this time

METAR text: HSSS 031200Z 36010KT CAVOK 44/01 Q1007 NOSIG
Conditions at: HSSS (KHARTOUM (CIV/MI, SD) observed 1200 UTC 03 June 2020
Temperature: 44.0°C (111°F)
Dewpoint: 1.0°C (34°F) [RH =  7%]
Pressure (altimeter): 29.73 inches Hg (1007.0 mb)
Winds: from the N (360 degrees) at 12 MPH (10 knots; 5.1 m/s)
Visibility: 6 or more miles (10+ km)
Ceiling: ceiling and visibility are OK
Clouds: unknown
Weather: no significant weather observed at this time

METAR text: HSSS 031100Z 36010KT CAVOK 43/00 Q1008 NOSIG
Conditions at: HSSS (KHARTOUM (CIV/MI, SD) observed 1100 UTC 03 June 2020
Temperature: 43.0°C (109°F)
Dewpoint: 0.0°C (32°F) [RH =  7%]
Pressure (altimeter): 29.76 inches Hg (1008.0 mb)
Winds: from the N (360 degrees) at 12 MPH (10 knots; 5.1 m/s)
Visibility: 6 or more miles (10+ km)
Ceiling: ceiling and visibility are OK
Clouds: unknown
Weather: no significant weather observed at this time

METAR text: HSSS 031000Z 01013KT CAVOK 42/M01 Q1009 NOSIG
Conditions at: HSSS (KHARTOUM (CIV/MI, SD) observed 1000 UTC 03 June 2020
Temperature: 42.0°C (108°F)
Dewpoint: -1.0°C (30°F) [RH =  7%]
Pressure (altimeter): 29.79 inches Hg (1009.0 mb)
Winds: from the N (10 degrees) at 15 MPH (13 knots; 6.7 m/s)
Visibility: 6 or more miles (10+ km)
Ceiling: ceiling and visibility are OK
Clouds: unknown
Weather: no significant weather observed at this time

METAR text: HSSS 030900Z 03012KT CAVOK 41/01 Q1010 NOSIG
Conditions at: HSSS (KHARTOUM (CIV/MI, SD) observed 0900 UTC 03 June 2020
Temperature: 41.0°C (106°F)
Dewpoint: 1.0°C (34°F) [RH =  8%]
Pressure (altimeter): 29.82 inches Hg (1010.0 mb)
Winds: from the NNE (30 degrees) at 14 MPH (12 knots; 6.2 m/s)
Visibility: 6 or more miles (10+ km)
Ceiling: ceiling and visibility are OK
Clouds: unknown
Weather: no significant weather observed at this time

METAR text: HSSS 030800Z 02012KT CAVOK 40/00 Q1011 NOSIG
Conditions at: HSSS (KHARTOUM (CIV/MI, SD) observed 0800 UTC 03 June 2020
Temperature: 40.0°C (104°F)
Dewpoint: 0.0°C (32°F) [RH =  8%]
Pressure (altimeter): 29.85 inches Hg (1011.0 mb)
Winds: from the NNE (20 degrees) at 14 MPH (12 knots; 6.2 m/s)
Visibility: 6 or more miles (10+ km)
Ceiling: ceiling and visibility are OK
Clouds: unknown
Weather: no significant weather observed at this time

METAR text: HSSS 030700Z 04012KT CAVOK 38/01 Q1011 NOSIG
Conditions at: HSSS (KHARTOUM (CIV/MI, SD) observed 0700 UTC 03 June 2020
Temperature: 38.0°C (100°F)
Dewpoint: 1.0°C (34°F) [RH = 10%]
Pressure (altimeter): 29.85 inches Hg (1011.0 mb)
Winds: from the NE (40 degrees) at 14 MPH (12 knots; 6.2 m/s)
Visibility: 6 or more miles (10+ km)
Ceiling: ceiling and visibility are OK
Clouds: unknown
Weather: no significant weather observed at this time

METAR text: HSSS 030600Z 05004KT CAVOK 34/01 Q1010 NOSIG
Conditions at: HSSS (KHARTOUM (CIV/MI, SD) observed 0600 UTC 03 June 2020
Temperature: 34.0°C (93°F)
Dewpoint: 1.0°C (34°F) [RH = 12%]
Pressure (altimeter): 29.82 inches Hg (1010.0 mb)
Winds: from the NE (50 degrees) at 5 MPH (4 knots; 2.1 m/s)
Visibility: 6 or more miles (10+ km)
Ceiling: ceiling and visibility are OK
Clouds: unknown
Weather: no significant weather observed at this time

METAR text: HSSS 030500Z 02007KT CAVOK 32/00 Q1010 NOSIG
Conditions at: HSSS (KHARTOUM (CIV/MI, SD) observed 0500 UTC 03 June 2020
Temperature: 32.0°C (90°F)
Dewpoint: 0.0°C (32°F) [RH = 13%]
Pressure (altimeter): 29.82 inches Hg (1010.0 mb)
Winds: from the NNE (20 degrees) at 8 MPH (7 knots; 3.6 m/s)
Visibility: 6 or more miles (10+ km)
Ceiling: ceiling and visibility are OK
Clouds: unknown
Weather: no significant weather observed at this time

METAR text: HSSS 030400Z 09010KT CAVOK 30/M01 Q1009 NOSIG
Conditions at: HSSS (KHARTOUM (CIV/MI, SD) observed 0400 UTC 03 June 2020
Temperature: 30.0°C (86°F)
Dewpoint: -1.0°C (30°F) [RH = 13%]
Pressure (altimeter): 29.79 inches Hg (1009.0 mb)
Winds: from the E (90 degrees) at 12 MPH (10 knots; 5.1 m/s)
Visibility: 6 or more miles (10+ km)
Ceiling: ceiling and visibility are OK
Clouds: unknown
Weather: no significant weather observed at this time

METAR text: HSSS 030300Z 36007KT CAVOK 28/M03 Q1008 NOSIG
Conditions at: HSSS (KHARTOUM (CIV/MI, SD) observed 0300 UTC 03 June 2020
Temperature: 28.0°C (82°F)
Dewpoint: -3.0°C (27°F) [RH = 13%]
Pressure (altimeter): 29.76 inches Hg (1008.0 mb)
Winds: from the N (360 degrees) at 8 MPH (7 knots; 3.6 m/s)
Visibility: 6 or more miles (10+ km)
Ceiling: ceiling and visibility are OK
Clouds: unknown
Weather: no significant weather observed at this time

METAR text: HSSS 030200Z 36009KT CAVOK 30/M01 Q1007 NOSIG
Conditions at: HSSS (KHARTOUM (CIV/MI, SD) observed 0200 UTC 03 June 2020
Temperature: 30.0°C (86°F)
Dewpoint: -1.0°C (30°F) [RH = 13%]
Pressure (altimeter): 29.73 inches Hg (1007.0 mb)
Winds: from the N (360 degrees) at 10 MPH (9 knots; 4.6 m/s)
Visibility: 6 or more miles (10+ km)
Ceiling: ceiling and visibility are OK
Clouds: unknown
Weather: no significant weather observed at this time

METAR text: HSSS 030100Z 36008KT CAVOK 30/M02 Q1007 NOSIG
Conditions at: HSSS (KHARTOUM (CIV/MI, SD) observed 0100 UTC 03 June 2020
Temperature: 30.0°C (86°F)
Dewpoint: -2.0°C (28°F) [RH = 12%]
Pressure (altimeter): 29.73 inches Hg (1007.0 mb)
Winds: from the N (360 degrees) at 9 MPH (8 knots; 4.1 m/s)
Visibility: 6 or more miles (10+ km)
Ceiling: ceiling and visibility are OK
Clouds: unknown
Weather: no significant weather observed at this time

METAR text: HSSS 030000Z 36008KT CAVOK 31/M03 Q1007 NOSIG
Conditions at: HSSS (KHARTOUM (CIV/MI, SD) observed 0000 UTC 03 June 2020
Temperature: 31.0°C (88°F)
Dewpoint: -3.0°C (27°F) [RH = 11%]
Pressure (altimeter): 29.73 inches Hg (1007.0 mb)
Winds: from the N (360 degrees) at 9 MPH (8 knots; 4.1 m/s)
Visibility: 6 or more miles (10+ km)
Ceiling: ceiling and visibility are OK
Clouds: unknown
Weather: no significant weather observed at this time

METAR text: HSSS 022300Z 36-08KT CAVOK 32/02 Q1007 NOSIG
Conditions at: HSSS (KHARTOUM (CIV/MI, SD) observed 2300 UTC 02 June 2020
Temperature: 32.0°C (90°F)
Dewpoint: 2.0°C (36°F) [RH = 15%]
Pressure (altimeter): 29.73 inches Hg (1007.0 mb)
Winds: missing
Visibility: 6 or more miles (10+ km)
Ceiling: ceiling and visibility are OK
Clouds: unknown
Weather: no significant weather observed at this time

METAR text: HSSS 022200Z 33007KT CAVOK 33/02 Q1007 NOSIG
Conditions at: HSSS (KHARTOUM (CIV/MI, SD) observed 2200 UTC 02 June 2020
Temperature: 33.0°C (91°F)
Dewpoint: 2.0°C (36°F) [RH = 14%]
Pressure (altimeter): 29.73 inches Hg (1007.0 mb)
Winds: from the NNW (330 degrees) at 8 MPH (7 knots; 3.6 m/s)
Visibility: 6 or more miles (10+ km)
Ceiling: ceiling and visibility are OK
Clouds: unknown
Weather: no significant weather observed at this time

METAR text: HSSS 022100Z 33002KT CAVOK 33/02 Q1008 NOSIG
Conditions at: HSSS (KHARTOUM (CIV/MI, SD) observed 2100 UTC 02 June 2020
Temperature: 33.0°C (91°F)
Dewpoint: 2.0°C (36°F) [RH = 14%]
Pressure (altimeter): 29.76 inches Hg (1008.0 mb)
Winds: from the NNW (330 degrees) at 2 MPH (2 knots; 1.0 m/s)
Visibility: 6 or more miles (10+ km)
Ceiling: ceiling and visibility are OK
Clouds: unknown
Weather: no significant weather observed at this time

METAR text: HSSS 022000Z 34002KT CAVOK 34/01 Q1008 NOSIG
Conditions at: HSSS (KHARTOUM (CIV/MI, SD) observed 2000 UTC 02 June 2020
Temperature: 34.0°C (93°F)
Dewpoint: 1.0°C (34°F) [RH = 12%]
Pressure (altimeter): 29.76 inches Hg (1008.0 mb)
Winds: from the NNW (340 degrees) at 2 MPH (2 knots; 1.0 m/s)
Visibility: 6 or more miles (10+ km)
Ceiling: ceiling and visibility are OK
Clouds: unknown
Weather: no significant weather observed at this time

METAR text: HSSS 021900Z 36003KT CAVOK 36/02 Q1008 NOSIG
Conditions at: HSSS (KHARTOUM (CIV/MI, SD) observed 1900 UTC 02 June 2020
Temperature: 36.0°C (97°F)
Dewpoint: 2.0°C (36°F) [RH = 12%]
Pressure (altimeter): 29.76 inches Hg (1008.0 mb)
Winds: from the N (360 degrees) at 3 MPH (3 knots; 1.5 m/s)
Visibility: 6 or more miles (10+ km)
Ceiling: ceiling and visibility are OK
Clouds: unknown
Weather: no significant weather observed at this time

METAR text: HSSS 021800Z 36004KT CAVOK 37/00 Q1007 NOSIG
Conditions at: HSSS (KHARTOUM (CIV/MI, SD) observed 1800 UTC 02 June 2020
Temperature: 37.0°C (99°F)
Dewpoint: 0.0°C (32°F) [RH = 10%]
Pressure (altimeter): 29.73 inches Hg (1007.0 mb)
Winds: from the N (360 degrees) at 5 MPH (4 knots; 2.1 m/s)
Visibility: 6 or more miles (10+ km)
Ceiling: ceiling and visibility are OK
Clouds: unknown
Weather: no significant weather observed at this time

METAR text: HSSS 021700Z 33006KT CAVOK 39/M04 Q1007 NOSIG
Conditions at: HSSS (KHARTOUM (CIV/MI, SD) observed 1700 UTC 02 June 2020
Temperature: 39.0°C (102°F)
Dewpoint: -4.0°C (25°F) [RH =  7%]
Pressure (altimeter): 29.73 inches Hg (1007.0 mb)
Winds: from the NNW (330 degrees) at 7 MPH (6 knots; 3.1 m/s)
Visibility: 6 or more miles (10+ km)
Ceiling: ceiling and visibility are OK
Clouds: unknown
Weather: no significant weather observed at this time

METAR text: HSSS 021600Z 35007KT CAVOK 41/M02 Q1006 NOSIG
Conditions at: HSSS (KHARTOUM (CIV/MI, SD) observed 1600 UTC 02 June 2020
Temperature: 41.0°C (106°F)
Dewpoint: -2.0°C (28°F) [RH =  7%]
Pressure (altimeter): 29.70 inches Hg (1006.0 mb)
Winds: from the N (350 degrees) at 8 MPH (7 knots; 3.6 m/s)
Visibility: 6 or more miles (10+ km)
Ceiling: ceiling and visibility are OK
Clouds: unknown
Weather: no significant weather observed at this time

METAR text: HSSS 021500Z 34008KT CAVOK 43/M04 Q1006 NOSIG
Conditions at: HSSS (KHARTOUM (CIV/MI, SD) observed 1500 UTC 02 June 2020
Temperature: 43.0°C (109°F)
Dewpoint: -4.0°C (25°F) [RH =  5%]
Pressure (altimeter): 29.70 inches Hg (1006.0 mb)
Winds: from the NNW (340 degrees) at 9 MPH (8 knots; 4.1 m/s)
Visibility: 6 or more miles (10+ km)
Ceiling: ceiling and visibility are OK
Clouds: unknown
Weather: no significant weather observed at this time

METAR text: HSSS 021400Z 34009KT CAVOK 43/M05 Q1007 NOSIG
Conditions at: HSSS (KHARTOUM (CIV/MI, SD) observed 1400 UTC 02 June 2020
Temperature: 43.0°C (109°F)
Dewpoint: -5.0°C (23°F) [RH =  5%]
Pressure (altimeter): 29.73 inches Hg (1007.0 mb)
Winds: from the NNW (340 degrees) at 10 MPH (9 knots; 4.6 m/s)
Visibility: 6 or more miles (10+ km)
Ceiling: ceiling and visibility are OK
Clouds: unknown
Weather: no significant weather observed at this time

METAR text: HSSS 021300Z 32006KT CAVOK 43/M05 Q1007 NOSIG
Conditions at: HSSS (KHARTOUM (CIV/MI, SD) observed 1300 UTC 02 June 2020
Temperature: 43.0°C (109°F)
Dewpoint: -5.0°C (23°F) [RH =  5%]
Pressure (altimeter): 29.73 inches Hg (1007.0 mb)
Winds: from the NW (320 degrees) at 7 MPH (6 knots; 3.1 m/s)
Visibility: 6 or more miles (10+ km)
Ceiling: ceiling and visibility are OK
Clouds: unknown
Weather: no significant weather observed at this time

METAR text: HSSS 021200Z 33013KT CAVOK 43/M05 Q1008 NOSIG
Conditions at: HSSS (KHARTOUM (CIV/MI, SD) observed 1200 UTC 02 June 2020
Temperature: 43.0°C (109°F)
Dewpoint: -5.0°C (23°F) [RH =  5%]
Pressure (altimeter): 29.76 inches Hg (1008.0 mb)
Winds: from the NNW (330 degrees) at 15 MPH (13 knots; 6.7 m/s)
Visibility: 6 or more miles (10+ km)
Ceiling: ceiling and visibility are OK
Clouds: unknown
Weather: no significant weather observed at this time

METAR text: HSSS 021100Z 32006KT CAVOK 42/M04 Q1009 NOSIG
Conditions at: HSSS (KHARTOUM (CIV/MI, SD) observed 1100 UTC 02 June 2020
Temperature: 42.0°C (108°F)
Dewpoint: -4.0°C (25°F) [RH =  6%]
Pressure (altimeter): 29.79 inches Hg (1009.0 mb)
Winds: from the NW (320 degrees) at 7 MPH (6 knots; 3.1 m/s)
Visibility: 6 or more miles (10+ km)
Ceiling: ceiling and visibility are OK
Clouds: unknown
Weather: no significant weather observed at this time

METAR text: HSSS 021000Z 04006KT CAVOK 41/M02 Q1010 NOSIG
Conditions at: HSSS (KHARTOUM (CIV/MI, SD) observed 1000 UTC 02 June 2020
Temperature: 41.0°C (106°F)
Dewpoint: -2.0°C (28°F) [RH =  7%]
Pressure (altimeter): 29.82 inches Hg (1010.0 mb)
Winds: from the NE (40 degrees) at 7 MPH (6 knots; 3.1 m/s)
Visibility: 6 or more miles (10+ km)
Ceiling: ceiling and visibility are OK
Clouds: unknown
Weather: no significant weather observed at this time

METAR text: HSSS 020900Z 01009KT CAVOK 39/M04 Q1010 NOSIG
Conditions at: HSSS (KHARTOUM (CIV/MI, SD) observed 0900 UTC 02 June 2020
Temperature: 39.0°C (102°F)
Dewpoint: -4.0°C (25°F) [RH =  7%]
Pressure (altimeter): 29.82 inches Hg (1010.0 mb)
Winds: from the N (10 degrees) at 10 MPH (9 knots; 4.6 m/s)
Visibility: 6 or more miles (10+ km)
Ceiling: ceiling and visibility are OK
Clouds: unknown
Weather: no significant weather observed at this time

METAR text: HSSS 020800Z 02012KT CAVOK 38/M02 Q1011 NOSIG
Conditions at: HSSS (KHARTOUM (CIV/MI, SD) observed 0800 UTC 02 June 2020
Temperature: 38.0°C (100°F)
Dewpoint: -2.0°C (28°F) [RH =  8%]
Pressure (altimeter): 29.85 inches Hg (1011.0 mb)
Winds: from the NNE (20 degrees) at 14 MPH (12 knots; 6.2 m/s)
Visibility: 6 or more miles (10+ km)
Ceiling: ceiling and visibility are OK
Clouds: unknown
Weather: no significant weather observed at this time

METAR text: HSSS 020700Z 01006KT CAVOK 36/M03 Q1011 NOSIG
Conditions at: HSSS (KHARTOUM (CIV/MI, SD) observed 0700 UTC 02 June 2020
Temperature: 36.0°C (97°F)
Dewpoint: -3.0°C (27°F) [RH =  8%]
Pressure (altimeter): 29.85 inches Hg (1011.0 mb)
Winds: from the N (10 degrees) at 7 MPH (6 knots; 3.1 m/s)
Visibility: 6 or more miles (10+ km)
Ceiling: ceiling and visibility are OK
Clouds: unknown
Weather: no significant weather observed at this time

METAR text: HSSS 020600Z 02003KT CAVOK 34/M04 Q1011 NOSIG
Conditions at: HSSS (KHARTOUM (CIV/MI, SD) observed 0600 UTC 02 June 2020
Temperature: 34.0°C (93°F)
Dewpoint: -4.0°C (25°F) [RH =  9%]
Pressure (altimeter): 29.85 inches Hg (1011.0 mb)
Winds: from the NNE (20 degrees) at 3 MPH (3 knots; 1.5 m/s)
Visibility: 6 or more miles (10+ km)
Ceiling: ceiling and visibility are OK
Clouds: unknown
Weather: no significant weather observed at this time

Forecast for: HSSS (KHARTOUM (CIV/MI, SD)
Text: HSSS 031100Z 0312/0418 36008G18KT CAVOK
Forecast period: 1200 UTC 03 June 2020 to 1800 UTC 04 June 2020
Forecast type: FROM: standard forecast or significant change
Winds: from the N (360 degrees) at 9 MPH (8 knots; 4.1 m/s)
gusting to 21 MPH (18 knots; 9.3 m/s)
Visibility: 6 or more miles 10+ km)
Ceiling: unknown
Clouds: missing
Weather: NSW  (no significant weather)